Terminal Aerodrome Forecast
Issued by NWS

Home | Current Version | Previous Version | Text Only | Print | Product List | Glossary On
Versions: 1 2 3 4 5 6 7 8 9 10 11 12 13 14 15 16 17 18 19 20 21 22 23 24 25 26 27
000
FTUS41 KBUF 310538
TAFIAG
TAF
KIAG 310538Z 3106/0106 25008KT P6SM FEW080
     FM310900 24004KT P6SM SKC
     FM311300 23005KT P6SM FEW250
     FM311800 23016G22KT P6SM SCT060
     FM312200 23013KT P6SM VCSH BKN060
     FM010200 24007KT 6SM -SHRA BKN060=

USA.gov is the U.S. government's official web portal to all federal, state and local government web resources and services.